Time;durP1;ratioP1;P1;durP2;ratioP2;P2;SDS_P1;SDS_P2;PMS_P1;PMS_P2;Temp;Humidity;BMP_temperature;BMP_pressure;BME280_temperature;BME280_humidity;BME280_pressure;Samples;Min_cycle;Max_cycle;Signal;HPM_P1;HPM_P2
2022/12/11 00:01:09;;;;;;;48.30;19.00;;;;;;;-1.57;100.00;98562.79;101901;1359;22657;-31
2022/12/11 00:03:34;;;;;;;46.20;17.00;;;;;;;-1.61;100.00;98565.60;101980;1360;22318;-31
2022/12/11 00:06:04;;;;;;;39.10;14.90;;;;;;;-1.64;100.00;98566.27;101778;1357;22604;-35
2022/12/11 00:08:30;;;;;;;33.50;13.10;;;;;;;-1.67;100.00;98569.13;102035;1374;22292;-34
2022/12/11 00:10:55;;;;;;;41.30;16.60;;;;;;;-1.58;100.00;98572.25;101391;1359;22607;-34
2022/12/11 00:13:21;;;;;;;45.70;14.90;;;;;;;-1.61;100.00;98574.22;100769;1367;22296;-30
2022/12/11 00:15:46;;;;;;;53.10;18.90;;;;;;;-1.60;100.00;98578.23;102006;1375;23877;-34
2022/12/11 00:18:13;;;;;;;41.50;16.00;;;;;;;-1.65;100.00;98573.04;101957;1359;22289;-31
2022/12/11 00:20:38;;;;;;;62.60;20.50;;;;;;;-1.62;100.00;98578.55;101965;1375;22223;-31
2022/12/11 00:23:04;;;;;;;45.60;17.40;;;;;;;-1.63;100.00;98579.02;101886;1375;22473;-34
2022/12/11 00:25:30;;;;;;;42.40;14.70;;;;;;;-1.64;100.00;98575.39;101802;1367;22613;-31
2022/12/11 00:27:55;;;;;;;48.10;13.50;;;;;;;-1.63;100.00;98570.95;102021;1358;22164;-31
2022/12/11 00:30:21;;;;;;;56.30;18.40;;;;;;;-1.68;100.00;98568.73;102093;1375;22500;-31
2022/12/11 00:32:46;;;;;;;43.60;18.40;;;;;;;-1.68;100.00;98569.61;101879;1355;22333;-32
2022/12/11 00:35:12;;;;;;;43.30;16.80;;;;;;;-1.64;100.00;98567.65;102021;1375;22277;-35
2022/12/11 00:37:38;;;;;;;36.70;14.30;;;;;;;-1.63;100.00;98566.16;101961;1374;22226;-31
2022/12/11 00:40:05;;;;;;;35.70;14.10;;;;;;;-1.63;100.00;98562.66;101953;1375;22498;-31
2022/12/11 00:42:30;;;;;;;46.80;17.60;;;;;;;-1.66;100.00;98567.69;101941;1359;22267;-30
2022/12/11 00:44:56;;;;;;;35.30;16.60;;;;;;;-1.67;100.00;98565.96;101937;1375;22627;-31
2022/12/11 00:47:22;;;;;;;40.20;12.70;;;;;;;-1.67;100.00;98568.96;100139;1377;22709;-32
2022/12/11 00:49:48;;;;;;;50.10;17.90;;;;;;;-1.63;100.00;98565.85;100778;1353;22686;-34
2022/12/11 00:52:16;;;;;;;52.20;17.30;;;;;;;-1.67;100.00;98566.02;101359;1374;25475;-34
2022/12/11 00:54:42;;;;;;;33.50;13.80;;;;;;;-1.66;100.00;98569.96;100328;1353;22914;-29
2022/12/11 00:57:07;;;;;;;41.40;16.10;;;;;;;-1.64;100.00;98566.58;100647;1366;23851;-31
2022/12/11 00:59:33;;;;;;;53.00;17.50;;;;;;;-1.69;100.00;98564.02;100419;1377;24031;-30
2022/12/11 01:01:59;;;;;;;39.30;14.80;;;;;;;-1.70;100.00;98564.51;100910;1369;22914;-34
2022/12/11 01:04:24;;;;;;;46.20;14.70;;;;;;;-1.65;100.00;98562.29;101854;1369;22605;-30
2022/12/11 01:06:50;;;;;;;35.20;12.30;;;;;;;-1.67;100.00;98559.30;101936;1365;22341;-31
2022/12/11 01:11:44;;;;;;;47.10;17.80;;;;;;;-1.69;100.00;98548.80;101998;1359;22699;-31
2022/12/11 01:14:10;;;;;;;24.90;8.40;;;;;;;-1.72;100.00;98548.40;101792;1359;22635;-34
2022/12/11 01:16:35;;;;;;;36.90;14.70;;;;;;;-1.73;100.00;98553.92;101963;1359;22451;-31
2022/12/11 01:19:02;;;;;;;39.70;15.00;;;;;;;-1.71;100.00;98552.48;101941;1359;22447;-35
2022/12/11 01:21:27;;;;;;;42.20;13.10;;;;;;;-1.64;100.00;98552.61;101967;1359;22298;-34
2022/12/11 01:23:54;;;;;;;40.20;13.70;;;;;;;-1.63;100.00;98549.64;102001;1359;22265;-31
2022/12/11 01:26:20;;;;;;;37.50;14.60;;;;;;;-1.68;100.00;98545.88;101780;1377;22291;-34
2022/12/11 01:28:48;;;;;;;37.20;13.20;;;;;;;-1.72;100.00;98548.23;101982;1358;22348;-31
2022/12/11 01:31:15;;;;;;;37.90;12.90;;;;;;;-1.71;100.00;98551.31;101939;1358;22585;-35
2022/12/11 01:33:41;;;;;;;20.50;8.40;;;;;;;-1.66;100.00;98555.19;102079;1368;22281;-31
2022/12/11 01:36:10;;;;;;;38.20;12.30;;;;;;;-1.71;100.00;98545.70;101969;1358;22623;-35
2022/12/11 01:38:36;;;;;;;34.00;12.70;;;;;;;-1.68;100.00;98541.89;101499;1356;22312;-30
2022/12/11 01:41:01;;;;;;;35.80;15.80;;;;;;;-1.71;100.00;98532.64;102034;1360;22301;-34
2022/12/11 01:43:27;;;;;;;38.50;15.00;;;;;;;-1.71;100.00;98533.52;101984;1375;22336;-32
2022/12/11 01:45:52;;;;;;;34.10;11.90;;;;;;;-1.70;100.00;98527.34;101987;1358;22310;-34
2022/12/11 01:48:20;;;;;;;40.40;15.90;;;;;;;-1.75;100.00;98524.04;101958;1375;22355;-30
2022/12/11 01:50:49;;;;;;;35.90;13.90;;;;;;;-1.74;100.00;98518.42;101933;1357;22643;-34
2022/12/11 01:53:18;;;;;;;27.60;12.50;;;;;;;-1.78;100.00;98517.64;101761;1376;22449;-34
2022/12/11 01:55:44;;;;;;;35.00;12.10;;;;;;;-1.76;100.00;98515.80;101966;1356;22402;-34
2022/12/11 01:58:10;;;;;;;26.10;10.10;;;;;;;-1.75;100.00;98517.27;102015;1376;22462;-30
2022/12/11 02:00:35;;;;;;;34.90;13.30;;;;;;;-1.75;100.00;98520.27;101939;1372;22614;-30
2022/12/11 02:03:01;;;;;;;36.10;13.40;;;;;;;-1.82;100.00;98518.27;101940;1358;22304;-30
2022/12/11 02:05:27;;;;;;;25.10;10.40;;;;;;;-1.84;100.00;98519.82;101917;1375;22132;-30
2022/12/11 02:07:55;;;;;;;27.30;11.50;;;;;;;-1.83;100.00;98515.52;100730;1359;22224;-29
2022/12/11 02:10:23;;;;;;;45.70;14.40;;;;;;;-1.81;100.00;98511.29;102015;1359;22342;-34
2022/12/11 02:12:52;;;;;;;;;;;;;;;-1.78;100.00;98508.56;101960;1359;22255;-34
2022/12/11 02:15:24;;;;;;;29.90;12.20;;;;;;;-1.80;100.00;98506.49;101969;1374;22436;-30
2022/12/11 02:17:55;;;;;;;41.40;13.60;;;;;;;-1.84;100.00;98501.39;102007;1376;22149;-34
2022/12/11 02:20:26;;;;;;;30.40;11.30;;;;;;;-1.88;100.00;98502.44;101956;1374;22142;-30
2022/12/11 02:22:58;;;;;;;44.60;15.20;;;;;;;-1.83;100.00;98499.95;101526;1358;23281;-29
2022/12/11 02:25:31;;;;;;;41.90;15.20;;;;;;;-1.84;100.00;98496.85;101997;1376;22303;-34
2022/12/11 02:28:04;;;;;;;46.80;16.90;;;;;;;-1.85;100.00;98491.85;102043;1375;22607;-31
2022/12/11 02:30:30;;;;;;;52.00;19.70;;;;;;;-1.88;100.00;98491.01;102012;1374;22301;-30
2022/12/11 02:32:57;;;;;;;41.00;15.60;;;;;;;-1.81;100.00;98492.66;101887;1376;22306;-30
2022/12/11 02:35:25;;;;;;;45.10;15.90;;;;;;;-1.85;100.00;98491.48;101986;1359;22473;-34
2022/12/11 02:37:56;;;;;;;42.80;16.80;;;;;;;-1.87;100.00;98490.03;101969;1360;22331;-34
2022/12/11 02:40:23;;;;;;;47.30;16.00;;;;;;;-1.82;100.00;98491.89;101985;1358;22252;-30
2022/12/11 02:42:49;;;;;;;46.80;16.10;;;;;;;-1.86;100.00;98491.73;101922;1359;22172;-34
2022/12/11 02:45:14;;;;;;;41.20;17.90;;;;;;;-1.84;100.00;98492.09;102057;1358;22906;-34
2022/12/11 02:47:40;;;;;;;36.90;15.00;;;;;;;-1.87;100.00;98489.23;102046;1373;22340;-34
2022/12/11 02:50:08;;;;;;;42.70;16.50;;;;;;;-1.85;100.00;98487.43;102050;1359;22340;-34
2022/12/11 02:52:34;;;;;;;57.00;19.10;;;;;;;-1.89;100.00;98480.23;101669;1362;22330;-30
2022/12/11 02:54:59;;;;;;;38.80;15.60;;;;;;;-1.88;100.00;98478.21;102107;1375;22182;-34
2022/12/11 02:57:30;;;;;;;56.90;17.70;;;;;;;-1.85;100.00;98480.09;101938;1355;22644;-34
2022/12/11 02:59:56;;;;;;;23.70;12.40;;;;;;;-1.87;100.00;98485.18;101662;1374;22441;-29
2022/12/11 03:02:21;;;;;;;49.90;15.00;;;;;;;-1.86;100.00;98490.50;101978;1358;22246;-34
2022/12/11 03:04:47;;;;;;;51.30;17.90;;;;;;;-1.87;100.00;98493.05;101952;1359;22544;-30
2022/12/11 03:07:16;;;;;;;47.60;14.80;;;;;;;-1.85;100.00;98493.91;101956;1365;22336;-30
2022/12/11 03:09:42;;;;;;;51.50;17.00;;;;;;;-1.82;100.00;98491.39;101994;1359;22317;-30
2022/12/11 03:12:10;;;;;;;42.40;16.90;;;;;;;-1.85;100.00;98492.86;102051;1375;22098;-35
2022/12/11 03:14:36;;;;;;;23.90;11.10;;;;;;;-1.83;100.00;98493.97;101851;1375;22643;-30
2022/12/11 03:17:08;;;;;;;38.00;14.20;;;;;;;-1.83;100.00;98485.35;101684;1375;22485;-29
2022/12/11 03:19:36;;;;;;;63.10;21.50;;;;;;;-1.81;100.00;98484.96;100985;1369;22645;-29
2022/12/11 03:22:08;;;;;;;31.70;12.60;;;;;;;-1.89;100.00;98485.33;101653;1359;22406;-33
2022/12/11 03:24:34;;;;;;;45.30;17.50;;;;;;;-1.85;100.00;98485.31;101938;1359;22377;-33
2022/12/11 03:27:04;;;;;;;43.80;12.60;;;;;;;-1.87;100.00;98484.14;101971;1359;22159;-30
2022/12/11 03:29:33;;;;;;;37.50;15.70;;;;;;;-1.92;100.00;98477.33;101991;1359;22871;-30
2022/12/11 03:32:07;;;;;;;52.10;17.90;;;;;;;-1.97;100.00;98476.77;101945;1357;22174;-30
2022/12/11 03:34:38;;;;;;;51.60;18.90;;;;;;;-2.00;100.00;98471.27;102029;1360;22253;-29
2022/12/11 03:37:04;;;;;;;44.90;16.30;;;;;;;-2.02;100.00;98468.80;101961;1377;22609;-34
2022/12/11 03:39:31;;;;;;;53.00;17.70;;;;;;;-1.99;100.00;98470.33;101589;1360;510708;-33
2022/12/11 03:42:00;;;;;;;60.30;19.90;;;;;;;-1.96;100.00;98467.88;102096;1356;22301;-30
2022/12/11 03:44:26;;;;;;;38.80;14.00;;;;;;;-1.95;100.00;98465.23;101962;1368;22943;-33
2022/12/11 03:46:51;;;;;;;39.50;16.60;;;;;;;-2.03;100.00;98464.35;101898;1365;22242;-29
2022/12/11 03:49:20;;;;;;;57.00;19.10;;;;;;;-2.10;100.00;98461.63;102042;1356;22491;-33
2022/12/11 03:51:47;;;;;;;55.70;18.90;;;;;;;-2.06;100.00;98463.80;101973;1359;22686;-29
2022/12/11 03:54:12;;;;;;;49.90;19.30;;;;;;;-2.10;100.00;98465.48;102012;1376;22265;-29
2022/12/11 03:56:38;;;;;;;58.50;16.60;;;;;;;-2.09;100.00;98467.15;102015;1356;22466;-33
2022/12/11 03:59:03;;;;;;;50.60;18.70;;;;;;;-2.09;100.00;98466.31;101930;1365;22616;-31
2022/12/11 04:01:29;;;;;;;45.60;14.80;;;;;;;-2.11;100.00;98464.06;101988;1359;22457;-33
2022/12/11 04:03:54;;;;;;;51.20;19.80;;;;;;;-2.14;100.00;98459.86;102043;1352;22380;-33
2022/12/11 04:06:20;;;;;;;65.30;22.80;;;;;;;-2.11;100.00;98461.73;101973;1356;22617;-30
2022/12/11 04:08:45;;;;;;;45.60;11.10;;;;;;;-2.11;100.00;98462.08;102004;1356;22279;-29
2022/12/11 04:13:40;;;;;;;68.50;26.00;;;;;;;-2.10;100.00;98469.20;101982;1359;22653;-33
2022/12/11 04:16:06;;;;;;;47.10;19.00;;;;;;;-2.15;100.00;98464.89;101911;1349;22298;-30
2022/12/11 04:26:06;;;;;;;48.30;19.60;;;;;;;-2.14;100.00;98449.77;102024;1359;22449;-29
2022/12/11 04:28:33;;;;;;;34.10;14.60;;;;;;;-2.16;100.00;98451.11;101818;1377;22640;-30
2022/12/11 04:30:58;;;;;;;57.60;21.30;;;;;;;-2.20;100.00;98445.23;102007;1356;22258;-33
2022/12/11 04:33:24;;;;;;;57.10;22.60;;;;;;;-2.16;100.00;98446.91;101992;1359;22528;-29
2022/12/11 04:35:49;;;;;;;70.70;24.30;;;;;;;-2.16;100.00;98443.92;102016;1359;22714;-33
2022/12/11 04:38:15;;;;;;;69.10;22.20;;;;;;;-2.18;100.00;98445.50;101612;1359;24328;-29
2022/12/11 04:40:40;;;;;;;51.70;17.60;;;;;;;-2.15;100.00;98444.91;101991;1375;22458;-30
2022/12/11 04:43:06;;;;;;;54.90;21.30;;;;;;;-2.18;100.00;98443.06;102044;1359;22175;-30
2022/12/11 04:45:31;;;;;;;31.30;12.10;;;;;;;-2.22;100.00;98435.20;101898;1359;22186;-33
2022/12/11 04:47:57;;;;;;;60.60;24.80;;;;;;;-2.20;100.00;98427.32;101752;1356;22777;-31
2022/12/11 04:50:22;;;;;;;48.50;16.40;;;;;;;-2.26;100.00;98423.98;101573;1356;23868;-33
2022/12/11 04:52:48;;;;;;;41.90;15.70;;;;;;;-2.32;100.00;98418.62;101549;1374;22431;-33
2022/12/11 04:55:13;;;;;;;46.60;19.90;;;;;;;-2.28;100.00;98415.73;101996;1359;23100;-33
2022/12/11 04:57:39;;;;;;;44.60;16.80;;;;;;;-2.29;100.00;98414.31;102062;1372;22365;-29
2022/12/11 05:00:06;;;;;;;46.20;16.90;;;;;;;-2.32;100.00;98409.14;101966;1374;22626;-34
2022/12/11 05:02:34;;;;;;;54.60;21.00;;;;;;;-2.36;100.00;98398.09;102017;1371;22308;-33
2022/12/11 05:05:02;;;;;;;19.60;7.60;;;;;;;-2.42;100.00;98398.98;101939;1359;22167;-33
2022/12/11 05:07:27;;;;;;;40.30;16.40;;;;;;;-2.42;100.00;98400.01;101952;1375;24242;-33
2022/12/11 05:09:53;;;;;;;44.80;17.00;;;;;;;-2.35;100.00;98401.70;101925;1376;22274;-29
2022/12/11 05:12:18;;;;;;;51.20;19.80;;;;;;;-2.39;100.00;98400.47;101891;1375;22559;-29
2022/12/11 05:14:44;;;;;;;39.70;12.50;;;;;;;-2.35;100.00;98397.95;102042;1376;22190;-33
2022/12/11 05:17:10;;;;;;;43.60;17.80;;;;;;;-2.37;100.00;98391.16;101586;1357;22595;-33
2022/12/11 05:19:35;;;;;;;32.90;14.70;;;;;;;-2.45;100.00;98388.71;101915;1375;22169;-35
2022/12/11 05:22:00;;;;;;;39.30;16.70;;;;;;;-2.45;100.00;98377.55;101480;1372;22612;-34
2022/12/11 05:24:26;;;;;;;31.00;10.90;;;;;;;-2.45;100.00;98380.30;102066;1359;22270;-34
2022/12/11 05:26:51;;;;;;;39.40;16.00;;;;;;;-2.36;100.00;98384.96;102035;1359;22624;-31
2022/12/11 05:29:17;;;;;;;46.50;15.10;;;;;;;-2.39;100.00;98379.44;102019;1353;22371;-30
2022/12/11 05:31:43;;;;;;;36.70;10.80;;;;;;;-2.41;100.00;98379.21;102003;1375;22217;-30
2022/12/11 05:34:09;;;;;;;50.40;15.50;;;;;;;-2.43;100.00;98377.49;102006;1356;22661;-30
2022/12/11 05:36:34;;;;;;;43.90;13.90;;;;;;;-2.40;100.00;98377.03;101922;1369;22354;-30
2022/12/11 05:39:00;;;;;;;52.60;20.50;;;;;;;-2.40;100.00;98377.59;101878;1359;22721;-33
2022/12/11 05:41:28;;;;;;;43.80;16.90;;;;;;;-2.48;100.00;98380.58;101326;1370;22288;-29
2022/12/11 05:43:53;;;;;;;37.60;14.80;;;;;;;-2.42;100.00;98376.35;101927;1359;22262;-30
2022/12/11 05:46:21;;;;;;;45.30;17.40;;;;;;;-2.46;100.00;98377.39;101867;1356;22280;-34
2022/12/11 05:48:48;;;;;;;46.50;17.30;;;;;;;-2.56;100.00;98378.99;102027;1359;22155;-34
2022/12/11 05:51:14;;;;;;;45.90;13.60;;;;;;;-2.55;100.00;98380.05;101454;1377;22583;-33
2022/12/11 05:53:40;;;;;;;56.20;20.70;;;;;;;-2.56;100.00;98379.92;101981;1356;22612;-29
2022/12/11 05:56:08;;;;;;;31.30;13.40;;;;;;;-2.53;100.00;98384.73;102029;1356;22270;-34
2022/12/11 05:58:34;;;;;;;36.60;15.50;;;;;;;-2.53;100.00;98382.84;102014;1356;22932;-30
2022/12/11 06:01:00;;;;;;;57.30;20.80;;;;;;;-2.50;100.00;98390.20;101940;1359;22647;-30
2022/12/11 06:03:25;;;;;;;53.50;18.20;;;;;;;-2.47;100.00;98392.45;101982;1376;22406;-30
2022/12/11 06:05:51;;;;;;;27.50;12.00;;;;;;;-2.50;100.00;98386.26;101984;1359;22168;-33
2022/12/11 06:08:17;;;;;;;37.50;15.30;;;;;;;-2.45;100.00;98385.94;102050;1359;22155;-30
2022/12/11 06:10:45;;;;;;;44.40;16.50;;;;;;;-2.49;100.00;98380.02;101889;1356;22269;-30
2022/12/11 06:13:11;;;;;;;36.20;16.90;;;;;;;-2.44;100.00;98382.67;101987;1359;22144;-30
2022/12/11 06:15:37;;;;;;;35.60;10.70;;;;;;;-2.43;100.00;98388.02;101993;1377;22726;-34
2022/12/11 06:18:02;;;;;;;46.90;15.50;;;;;;;-2.37;100.00;98388.40;101989;1356;22418;-34
2022/12/11 06:20:30;;;;;;;27.40;10.30;;;;;;;-2.53;100.00;98387.02;101926;1375;22312;-33
2022/12/11 06:22:56;;;;;;;42.80;16.10;;;;;;;-2.61;100.00;98391.36;101968;1371;22612;-30
2022/12/11 06:25:21;;;;;;;49.00;18.00;;;;;;;-2.65;100.00;98386.33;101933;1356;22608;-34
2022/12/11 06:27:47;;;;;;;65.80;15.40;;;;;;;-2.68;100.00;98387.67;101778;1356;22774;-30
2022/12/11 06:30:13;;;;;;;70.00;16.70;;;;;;;-2.66;100.00;98386.27;101987;1352;22215;-32
2022/12/11 06:32:38;;;;;;;47.60;16.30;;;;;;;-2.67;100.00;98391.41;101875;1356;22176;-33
2022/12/11 06:35:04;;;;;;;38.20;15.90;;;;;;;-2.71;100.00;98395.65;102059;1356;22451;-30
2022/12/11 06:37:30;;;;;;;54.40;19.50;;;;;;;-2.70;100.00;98403.84;102016;1376;22270;-30
2022/12/11 06:39:56;;;;;;;50.50;19.90;;;;;;;-2.73;100.00;98406.91;101977;1354;22306;-33
2022/12/11 06:42:21;;;;;;;31.30;14.50;;;;;;;-2.68;100.00;98411.89;101970;1356;22622;-29
2022/12/11 06:44:47;;;;;;;48.60;20.10;;;;;;;-2.71;100.00;98415.43;101976;1356;22696;-32
2022/12/11 06:47:12;;;;;;;48.50;14.50;;;;;;;-2.69;100.00;98417.89;102002;1356;22498;-29
2022/12/11 06:49:38;;;;;;;50.30;16.30;;;;;;;-2.70;100.00;98417.77;101972;1356;22430;-30
2022/12/11 06:52:04;;;;;;;51.10;19.50;;;;;;;-2.67;100.00;98415.06;102034;1356;22421;-30
2022/12/11 06:54:30;;;;;;;61.80;22.00;;;;;;;-2.70;100.00;98410.05;101834;1356;22563;-30
2022/12/11 06:56:56;;;;;;;44.10;19.00;;;;;;;-2.76;100.00;98409.22;101991;1356;22259;-30
2022/12/11 06:59:21;;;;;;;40.80;17.90;;;;;;;-2.79;100.00;98407.53;101971;1368;22635;-30
2022/12/11 07:01:47;;;;;;;44.60;17.10;;;;;;;-2.83;100.00;98402.48;102031;1372;22750;-33
2022/12/11 07:04:12;;;;;;;46.60;19.40;;;;;;;-2.78;100.00;98399.98;101970;1376;22270;-34
2022/12/11 07:06:38;;;;;;;32.00;14.00;;;;;;;-2.82;100.00;98398.71;101985;1376;22301;-29
2022/12/11 07:09:04;;;;;;;40.20;17.70;;;;;;;-2.86;100.00;98397.48;101871;1356;22390;-34
2022/12/11 07:11:30;;;;;;;40.50;16.30;;;;;;;-2.78;100.00;98395.09;101820;1359;22192;-30
2022/12/11 07:13:59;;;;;;;45.00;20.70;;;;;;;-2.85;100.00;98394.41;101903;1359;22160;-33
2022/12/11 07:16:25;;;;;;;46.60;18.20;;;;;;;-2.92;100.00;98395.79;101988;1371;22617;-29
2022/12/11 07:18:51;;;;;;;47.40;18.50;;;;;;;-2.99;100.00;98399.54;101884;1359;22643;-29
2022/12/11 07:21:17;;;;;;;50.00;18.40;;;;;;;-2.90;100.00;98404.14;102014;1360;22591;-33
2022/12/11 07:23:43;;;;;;;51.40;20.00;;;;;;;-2.94;100.00;98403.09;102051;1368;22490;-34
2022/12/11 07:26:12;;;;;;;40.70;17.50;;;;;;;-2.86;100.00;98405.42;101983;1373;22611;-34
2022/12/11 07:28:37;;;;;;;35.90;18.00;;;;;;;-2.90;100.00;98405.55;101823;1356;22773;-29
2022/12/11 07:31:06;;;;;;;35.50;14.10;;;;;;;-2.93;100.00;98406.05;101809;1359;22642;-33
2022/12/11 07:33:31;;;;;;;40.00;14.00;;;;;;;-2.82;100.00;98405.90;102044;1356;22620;-30
2022/12/11 07:36:01;;;;;;;40.10;17.10;;;;;;;-2.87;100.00;98403.90;102016;1372;22573;-29
2022/12/11 07:38:26;;;;;;;33.00;13.40;;;;;;;-2.94;100.00;98403.31;101977;1349;22313;-34
2022/12/11 07:40:52;;;;;;;29.50;13.90;;;;;;;-2.99;100.00;98406.55;102026;1371;22184;-34
2022/12/11 07:43:17;;;;;;;44.20;17.10;;;;;;;-2.90;100.00;98406.94;101958;1359;22469;-34
2022/12/11 07:45:43;;;;;;;46.70;16.50;;;;;;;-2.91;100.00;98412.44;101982;1358;22300;-34
2022/12/11 07:48:08;;;;;;;49.40;18.40;;;;;;;-2.94;100.00;98410.83;101588;1358;22601;-33
2022/12/11 07:50:34;;;;;;;42.40;15.00;;;;;;;-2.96;100.00;98409.60;101830;1359;24289;-30
2022/12/11 07:52:59;;;;;;;36.60;14.60;;;;;;;-3.01;100.00;98415.79;102020;1352;22693;-33
2022/12/11 07:55:25;;;;;;;35.90;15.90;;;;;;;-3.01;100.00;98414.38;101869;1359;22620;-29
2022/12/11 07:57:50;;;;;;;37.40;14.10;;;;;;;-3.02;100.00;98410.17;101947;1357;22851;-34
2022/12/11 08:00:16;;;;;;;36.10;15.90;;;;;;;-3.00;100.00;98412.39;102064;1357;22334;-34
2022/12/11 08:02:42;;;;;;;28.70;12.80;;;;;;;-2.91;100.00;98418.24;102060;1372;22632;-29
2022/12/11 08:05:08;;;;;;;45.50;18.10;;;;;;;-2.87;100.00;98424.89;101979;1374;22190;-30
2022/12/11 08:07:34;;;;;;;44.40;18.40;;;;;;;-2.88;100.00;98427.27;102015;1367;22461;-34
2022/12/11 08:10:00;;;;;;;41.40;16.90;;;;;;;-2.89;100.00;98424.54;102064;1375;22761;-30
2022/12/11 08:12:26;;;;;;;44.30;17.40;;;;;;;-2.88;100.00;98423.21;101872;1356;22604;-30
2022/12/11 08:14:51;;;;;;;28.00;11.60;;;;;;;-2.89;100.00;98418.64;101814;1374;24747;-29
2022/12/11 08:17:17;;;;;;;57.00;20.30;;;;;;;-2.86;100.00;98415.52;101351;1359;22744;-34
2022/12/11 08:19:42;;;;;;;36.50;14.50;;;;;;;-2.90;100.00;98414.02;101920;1360;22628;-33
2022/12/11 08:22:08;;;;;;;44.00;18.60;;;;;;;-2.92;100.00;98418.35;101956;1377;22610;-33
2022/12/11 08:24:33;;;;;;;;;;;;;;;-2.98;100.00;98420.27;101951;1356;22426;-34
2022/12/11 08:26:59;;;;;;;36.50;14.90;;;;;;;-2.94;100.00;98420.09;102010;1359;22644;-34
2022/12/11 08:29:25;;;;;;;41.80;18.00;;;;;;;-2.86;100.00;98425.02;102016;1375;22624;-33
2022/12/11 08:31:51;;;;;;;39.00;18.10;;;;;;;-2.80;100.00;98421.52;101972;1366;22685;-29
2022/12/11 08:34:17;;;;;;;42.30;16.60;;;;;;;-2.78;100.00;98421.02;101910;1376;22499;-34
2022/12/11 08:36:43;;;;;;;36.10;15.00;;;;;;;-2.73;100.00;98417.95;101863;1358;22287;-34
2022/12/11 08:39:08;;;;;;;40.90;14.70;;;;;;;-2.70;100.00;98413.61;101755;1350;22176;-30
2022/12/11 08:41:34;;;;;;;42.40;15.10;;;;;;;-2.80;100.00;98413.64;101781;1373;22691;-30
2022/12/11 08:44:00;;;;;;;43.20;19.40;;;;;;;-2.76;100.00;98410.80;102026;1356;22259;-30
2022/12/11 08:46:28;;;;;;;35.80;14.60;;;;;;;-2.74;100.00;98407.68;101905;1373;22682;-30
2022/12/11 08:48:53;;;;;;;39.40;15.60;;;;;;;-2.66;100.00;98403.94;102055;1375;22612;-30
2022/12/11 08:51:21;;;;;;;59.20;23.90;;;;;;;-2.75;100.00;98403.04;102120;1356;22611;-33
2022/12/11 08:53:47;;;;;;;50.10;19.50;;;;;;;-2.86;100.00;98401.35;101977;1356;22622;-30
2022/12/11 08:56:14;;;;;;;50.70;19.70;;;;;;;-2.89;100.00;98402.52;101983;1359;22626;-32
2022/12/11 08:58:40;;;;;;;49.60;19.40;;;;;;;-2.87;100.00;98402.85;102030;1359;22461;-30
2022/12/11 09:01:07;;;;;;;65.30;24.00;;;;;;;-2.99;100.00;98403.77;102016;1356;22621;-31
2022/12/11 09:03:34;;;;;;;53.70;24.30;;;;;;;-2.93;100.00;98407.60;101921;1356;22318;-33
2022/12/11 09:06:04;;;;;;;18.00;10.20;;;;;;;-2.91;100.00;98408.61;101486;1372;22618;-33
2022/12/11 09:08:29;;;;;;;56.20;17.70;;;;;;;-2.79;100.00;98396.74;102054;1356;22238;-30
2022/12/11 09:10:55;;;;;;;55.00;20.50;;;;;;;-2.89;100.00;98399.73;101861;1365;22685;-30
2022/12/11 09:13:20;;;;;;;56.00;20.10;;;;;;;-2.78;100.00;98399.83;101919;1366;22649;-34
2022/12/11 09:15:46;;;;;;;49.10;19.10;;;;;;;-2.77;100.00;98394.62;101832;1375;22636;-33
2022/12/11 09:18:11;;;;;;;49.50;19.60;;;;;;;-2.83;100.00;98388.49;101842;1358;22467;-30
2022/12/11 09:20:37;;;;;;;49.50;17.30;;;;;;;-2.76;100.00;98381.07;101968;1356;22667;-34
2022/12/11 09:23:02;;;;;;;35.80;15.40;;;;;;;-2.79;100.00;98380.41;101994;1377;22960;-34
2022/12/11 09:25:28;;;;;;;48.70;19.20;;;;;;;-2.91;100.00;98381.80;102011;1356;22396;-34
2022/12/11 09:27:54;;;;;;;51.20;20.90;;;;;;;-2.74;100.00;98380.36;101738;1349;22622;-34
2022/12/11 09:30:19;;;;;;;52.70;21.30;;;;;;;-2.65;100.00;98376.73;102020;1359;22642;-34
2022/12/11 09:32:45;;;;;;;;;;;;;;;-2.68;100.00;98377.31;101852;1356;25622;-33
2022/12/11 09:35:10;;;;;;;51.30;19.30;;;;;;;-2.70;100.00;98376.06;101645;1356;22612;-30
2022/12/11 09:37:35;;;;;;;33.70;14.80;;;;;;;-2.76;100.00;98372.05;101973;1356;22355;-34
2022/12/11 09:40:01;;;;;;;32.30;13.30;;;;;;;-2.86;100.00;98367.54;101820;1367;22641;-29
2022/12/11 09:42:38;;;;;;;50.60;21.40;;;;;;;-2.81;100.00;98366.21;102045;1358;22292;-30
2022/12/11 09:45:05;;;;;;;48.00;17.60;;;;;;;-2.91;100.00;98364.54;101944;1376;22776;-33
2022/12/11 09:47:35;;;;;;;44.60;17.60;;;;;;;-2.85;100.00;98365.15;102029;1356;22315;-34
2022/12/11 09:50:11;;;;;;;46.60;18.60;;;;;;;-2.80;100.00;98362.47;101820;1376;22667;-33
2022/12/11 09:52:41;;;;;;;53.30;20.40;;;;;;;-2.69;100.00;98353.90;102043;1373;22239;-30
2022/12/11 09:55:12;;;;;;;59.30;14.50;;;;;;;-2.67;100.00;98350.97;101896;1362;22260;-30
2022/12/11 09:57:45;;;;;;;52.70;19.30;;;;;;;-2.73;100.00;98343.14;102037;1356;22349;-30
2022/12/11 10:00:16;;;;;;;38.50;16.90;;;;;;;-2.79;100.00;98340.85;102054;1357;22369;-33
2022/12/11 10:02:45;;;;;;;45.00;17.30;;;;;;;-2.79;100.00;98334.70;102004;1376;22720;-34
2022/12/11 10:05:14;;;;;;;42.40;17.20;;;;;;;-2.85;100.00;98335.63;101690;1356;22612;-29
2022/12/11 10:07:46;;;;;;;20.60;6.20;;;;;;;-2.89;100.00;98332.80;101668;1356;22293;-33
2022/12/11 10:10:12;;;;;;;27.80;11.40;;;;;;;-3.00;100.00;98332.76;102005;1356;22259;-30
2022/12/11 10:12:46;;;;;;;43.80;18.80;;;;;;;-3.03;100.00;98336.00;101953;1375;22312;-30
2022/12/11 10:15:19;;;;;;;39.80;15.00;;;;;;;-2.88;100.00;98338.08;101964;1356;22341;-30
2022/12/11 10:17:44;;;;;;;17.10;8.50;;;;;;;-3.03;100.00;98334.75;101928;1365;22694;-34
2022/12/11 10:20:17;;;;;;;47.10;17.30;;;;;;;-2.92;100.00;98336.20;101922;1365;22170;-30
2022/12/11 10:22:42;;;;;;;27.40;11.10;;;;;;;-2.80;100.00;98331.95;101993;1356;22513;-34
2022/12/11 10:25:17;;;;;;;41.00;18.30;;;;;;;-2.87;100.00;98336.78;102000;1356;22380;-34
2022/12/11 10:27:44;;;;;;;39.50;16.60;;;;;;;-2.87;100.00;98334.36;102119;1356;22390;-30
2022/12/11 10:30:15;;;;;;;25.70;10.80;;;;;;;-2.96;100.00;98333.76;102018;1359;22398;-30
2022/12/11 10:32:48;;;;;;;46.10;18.10;;;;;;;-3.11;100.00;98327.55;101538;1372;22622;-33
2022/12/11 10:35:24;;;;;;;32.10;18.30;;;;;;;-2.95;100.00;98330.23;101263;1357;22691;-29
2022/12/11 10:37:50;;;;;;;24.70;10.30;;;;;;;-3.10;100.00;98335.05;101644;1349;22613;-34
2022/12/11 10:40:16;;;;;;;40.60;18.70;;;;;;;-3.18;100.00;98333.09;101766;1356;22756;-29
2022/12/11 10:42:51;;;;;;;47.20;19.10;;;;;;;-2.99;100.00;98331.45;101919;1371;22327;-34
2022/12/11 10:45:16;;;;;;;37.30;17.80;;;;;;;-2.99;100.00;98327.20;102021;1356;22434;-34
2022/12/11 10:47:43;;;;;;;27.70;12.90;;;;;;;-2.96;100.00;98324.83;101991;1375;22638;-32
2022/12/11 10:50:21;;;;;;;42.20;16.90;;;;;;;-3.10;100.00;98318.24;102004;1368;22662;-30
2022/12/11 10:52:46;;;;;;;44.60;18.40;;;;;;;-2.93;100.00;98314.61;102005;1366;22617;-30
2022/12/11 10:55:18;;;;;;;41.20;16.00;;;;;;;-2.91;100.00;98315.28;102015;1359;22655;-34
2022/12/11 10:57:43;;;;;;;58.60;17.00;;;;;;;-3.07;100.00;98307.42;101998;1356;23272;-31
2022/12/11 11:00:28;;;;;;;45.20;20.20;;;;;;;-2.92;100.00;98305.39;101938;1357;22596;-34
2022/12/11 11:02:53;;;;;;;39.90;12.90;;;;;;;-2.88;100.00;98303.77;101851;1356;22617;-33
2022/12/11 11:05:26;;;;;;;57.70;23.60;;;;;;;-2.95;100.00;98298.98;101981;1376;22271;-34
2022/12/11 11:08:03;;;;;;;52.90;22.10;;;;;;;-3.06;100.00;98292.95;101943;1375;22634;-29
2022/12/11 11:10:29;;;;;;;46.00;19.30;;;;;;;-2.95;100.00;98296.92;101895;1377;22624;-29
2022/12/11 11:12:54;;;;;;;46.40;17.80;;;;;;;-2.96;100.00;98294.20;101773;1373;22726;-30